sensor_id;sensor_type;location;lat;lon;timestamp;pressure;altitude;pressure_sealevel;temperature;humidity
69219;BME280;56232;53.384;-2.732;2023-08-01T00:00:19;99491.39;;;17.38;37.89
69219;BME280;56232;53.384;-2.732;2023-08-01T00:02:43;99489.42;;;16.16;37.72
69219;BME280;56232;53.384;-2.732;2023-08-01T00:05:10;99490.63;;;16.16;38.22
69219;BME280;56232;53.384;-2.732;2023-08-01T00:07:35;99491.75;;;16.20;37.45
69219;BME280;56232;53.384;-2.732;2023-08-01T00:10:01;99487.55;;;16.67;36.99
69219;BME280;56232;53.384;-2.732;2023-08-01T00:12:27;99493.16;;;17.16;38.35
69219;BME280;56232;53.384;-2.732;2023-08-01T00:14:52;99492.77;;;16.11;38.29
69219;BME280;56232;53.384;-2.732;2023-08-01T00:17:17;99495.50;;;17.26;37.12
69219;BME280;56232;53.384;-2.732;2023-08-01T00:19:42;99498.05;;;16.57;37.78
69219;BME280;56232;53.384;-2.732;2023-08-01T00:22:08;99494.16;;;16.58;38.60
69219;BME280;56232;53.384;-2.732;2023-08-01T00:24:36;99490.62;;;16.66;37.72
69219;BME280;56232;53.384;-2.732;2023-08-01T00:27:00;99494.91;;;17.17;37.99
69219;BME280;56232;53.384;-2.732;2023-08-01T00:29:25;99496.16;;;17.24;38.26
69219;BME280;56232;53.384;-2.732;2023-08-01T00:31:50;99494.41;;;17.35;37.60
69219;BME280;56232;53.384;-2.732;2023-08-01T00:34:16;99492.03;;;17.45;38.12
69219;BME280;56232;53.384;-2.732;2023-08-01T00:36:42;99488.14;;;16.40;37.91
69219;BME280;56232;53.384;-2.732;2023-08-01T00:39:07;99489.68;;;16.47;38.06
69219;BME280;56232;53.384;-2.732;2023-08-01T00:41:32;99493.74;;;16.53;37.53
69219;BME280;56232;53.384;-2.732;2023-08-01T00:43:58;99492.37;;;17.55;37.13
69219;BME280;56232;53.384;-2.732;2023-08-01T00:46:24;99491.93;;;16.87;37.40
69219;BME280;56232;53.384;-2.732;2023-08-01T00:48:49;99495.72;;;17.01;37.76
69219;BME280;56232;53.384;-2.732;2023-08-01T00:51:15;99490.27;;;16.53;36.89
69219;BME280;56232;53.384;-2.732;2023-08-01T00:53:40;99495.79;;;16.47;37.04
69219;BME280;56232;53.384;-2.732;2023-08-01T00:56:05;99495.43;;;16.96;37.21
69219;BME280;56232;53.384;-2.732;2023-08-01T00:58:35;99496.49;;;16.40;37.45
69219;BME280;56232;53.384;-2.732;2023-08-01T01:00:56;99494.21;;;17.01;37.13
69219;BME280;56232;53.384;-2.732;2023-08-01T01:03:22;99496.04;;;16.93;37.21
69219;BME280;56232;53.384;-2.732;2023-08-01T01:05:52;99493.93;;;16.15;36.88
69219;BME280;56232;53.384;-2.732;2023-08-01T01:08:13;99494.01;;;17.32;37.43
69219;BME280;56232;53.384;-2.732;2023-08-01T01:10:39;99497.23;;;16.29;37.65
69219;BME280;56232;53.384;-2.732;2023-08-01T01:13:04;99494.41;;;17.35;37.85
69219;BME280;56232;53.384;-2.732;2023-08-01T01:15:30;99494.32;;;17.45;37.38
69219;BME280;56232;53.384;-2.732;2023-08-01T01:17:55;99497.51;;;17.45;37.68
69219;BME280;56232;53.384;-2.732;2023-08-01T01:20:22;99490.12;;;16.27;37.67
69219;BME280;56232;53.384;-2.732;2023-08-01T01:22:47;99498.07;;;17.28;37.00
69219;BME280;56232;53.384;-2.732;2023-08-01T01:25:12;99492.10;;;16.69;37.45
69219;BME280;56232;53.384;-2.732;2023-08-01T01:27:37;99495.27;;;16.76;38.55
69219;BME280;56232;53.384;-2.732;2023-08-01T01:30:03;99497.72;;;16.40;38.03
69219;BME280;56232;53.384;-2.732;2023-08-01T01:32:29;99493.83;;;16.42;37.41
69219;BME280;56232;53.384;-2.732;2023-08-01T01:34:53;99492.52;;;16.34;37.73
69219;BME280;56232;53.384;-2.732;2023-08-01T01:37:19;99498.56;;;16.31;37.28
69219;BME280;56232;53.384;-2.732;2023-08-01T01:39:44;99497.69;;;17.18;37.44
69219;BME280;56232;53.384;-2.732;2023-08-01T01:42:10;99504.66;;;16.48;37.55
69219;BME280;56232;53.384;-2.732;2023-08-01T01:44:35;99506.60;;;15.80;38.25
69219;BME280;56232;53.384;-2.732;2023-08-01T01:47:01;99506.71;;;16.36;37.87
69219;BME280;56232;53.384;-2.732;2023-08-01T01:49:27;99503.49;;;16.79;37.55
69219;BME280;56232;53.384;-2.732;2023-08-01T01:51:52;99503.58;;;15.57;38.56
69219;BME280;56232;53.384;-2.732;2023-08-01T01:54:17;99499.54;;;16.84;38.55
69219;BME280;56232;53.384;-2.732;2023-08-01T01:56:43;99497.26;;;16.58;38.96
69219;BME280;56232;53.384;-2.732;2023-08-01T01:59:08;99502.08;;;16.87;38.57
69219;BME280;56232;53.384;-2.732;2023-08-01T02:01:33;99507.13;;;17.40;38.64
69219;BME280;56232;53.384;-2.732;2023-08-01T02:03:59;99498.78;;;16.30;38.26
69219;BME280;56232;53.384;-2.732;2023-08-01T02:06:24;99503.84;;;17.49;36.72
69219;BME280;56232;53.384;-2.732;2023-08-01T02:08:50;99498.39;;;16.08;37.51
69219;BME280;56232;53.384;-2.732;2023-08-01T02:11:16;99501.84;;;15.87;37.53
69219;BME280;56232;53.384;-2.732;2023-08-01T02:13:41;99501.20;;;16.31;37.74
69219;BME280;56232;53.384;-2.732;2023-08-01T02:16:07;99505.90;;;16.57;37.99
69219;BME280;56232;53.384;-2.732;2023-08-01T02:18:32;99501.83;;;16.42;39.01
69219;BME280;56232;53.384;-2.732;2023-08-01T02:20:57;99498.72;;;16.63;38.89
69219;BME280;56232;53.384;-2.732;2023-08-01T02:23:23;99497.09;;;16.75;38.05
69219;BME280;56232;53.384;-2.732;2023-08-01T02:25:49;99494.76;;;16.17;37.58
69219;BME280;56232;53.384;-2.732;2023-08-01T02:28:15;99492.03;;;16.11;38.44
69219;BME280;56232;53.384;-2.732;2023-08-01T02:30:40;99490.07;;;16.61;37.20
69219;BME280;56232;53.384;-2.732;2023-08-01T02:33:06;99495.74;;;16.32;37.81
69219;BME280;56232;53.384;-2.732;2023-08-01T02:35:32;99494.30;;;14.97;38.40
69219;BME280;56232;53.384;-2.732;2023-08-01T02:37:57;99501.00;;;16.16;37.97
69219;BME280;56232;53.384;-2.732;2023-08-01T02:40:22;99495.43;;;16.21;38.20
69219;BME280;56232;53.384;-2.732;2023-08-01T02:42:48;99497.45;;;16.02;37.93
69219;BME280;56232;53.384;-2.732;2023-08-01T02:45:14;99496.94;;;15.87;38.85
69219;BME280;56232;53.384;-2.732;2023-08-01T02:47:39;99497.91;;;16.01;37.59
69219;BME280;56232;53.384;-2.732;2023-08-01T02:50:05;99497.97;;;15.81;38.58
69219;BME280;56232;53.384;-2.732;2023-08-01T02:52:31;99500.12;;;16.02;37.97
69219;BME280;56232;53.384;-2.732;2023-08-01T02:54:56;99498.86;;;15.60;38.83
69219;BME280;56232;53.384;-2.732;2023-08-01T02:57:22;99496.33;;;15.73;38.54
69219;BME280;56232;53.384;-2.732;2023-08-01T02:59:47;99497.26;;;16.38;37.87
69219;BME280;56232;53.384;-2.732;2023-08-01T03:02:12;99489.74;;;16.47;38.66
69219;BME280;56232;53.384;-2.732;2023-08-01T03:04:38;99491.56;;;16.26;37.93
69219;BME280;56232;53.384;-2.732;2023-08-01T03:07:04;99494.20;;;16.85;36.96
69219;BME280;56232;53.384;-2.732;2023-08-01T03:09:31;99492.35;;;16.83;37.35
69219;BME280;56232;53.384;-2.732;2023-08-01T03:11:55;99496.43;;;16.81;37.94
69219;BME280;56232;53.384;-2.732;2023-08-01T03:14:20;99491.46;;;16.79;37.66
69219;BME280;56232;53.384;-2.732;2023-08-01T03:16:46;99495.78;;;16.69;37.71
69219;BME280;56232;53.384;-2.732;2023-08-01T03:19:12;99497.52;;;16.60;38.15
69219;BME280;56232;53.384;-2.732;2023-08-01T03:21:37;99493.60;;;16.43;37.35
69219;BME280;56232;53.384;-2.732;2023-08-01T03:24:03;99494.26;;;16.25;37.84
69219;BME280;56232;53.384;-2.732;2023-08-01T03:26:30;99498.98;;;15.75;37.46
69219;BME280;56232;53.384;-2.732;2023-08-01T03:28:53;99494.76;;;15.48;38.37
69219;BME280;56232;53.384;-2.732;2023-08-01T03:31:19;99492.68;;;15.84;37.56
69219;BME280;56232;53.384;-2.732;2023-08-01T03:33:44;99493.38;;;15.68;38.49
69219;BME280;56232;53.384;-2.732;2023-08-01T03:36:10;99494.64;;;16.15;38.06
69219;BME280;56232;53.384;-2.732;2023-08-01T03:38:35;99495.16;;;16.12;38.69
69219;BME280;56232;53.384;-2.732;2023-08-01T03:41:01;99498.55;;;16.07;38.95
69219;BME280;56232;53.384;-2.732;2023-08-01T03:43:26;99497.12;;;15.82;38.88
69219;BME280;56232;53.384;-2.732;2023-08-01T03:45:52;99499.12;;;16.02;38.11
69219;BME280;56232;53.384;-2.732;2023-08-01T03:48:17;99494.77;;;16.60;37.61
69219;BME280;56232;53.384;-2.732;2023-08-01T03:50:42;99502.74;;;16.15;38.01
69219;BME280;56232;53.384;-2.732;2023-08-01T03:53:08;99495.94;;;16.08;37.79
69219;BME280;56232;53.384;-2.732;2023-08-01T03:55:33;99496.88;;;16.02;38.29
69219;BME280;56232;53.384;-2.732;2023-08-01T03:57:59;99494.35;;;15.68;37.87
69219;BME280;56232;53.384;-2.732;2023-08-01T04:00:24;99497.73;;;16.87;37.39
69219;BME280;56232;53.384;-2.732;2023-08-01T04:02:50;99500.05;;;16.41;38.51
69219;BME280;56232;53.384;-2.732;2023-08-01T04:05:16;99499.98;;;16.52;37.91
69219;BME280;56232;53.384;-2.732;2023-08-01T04:07:41;99497.47;;;16.53;37.87
69219;BME280;56232;53.384;-2.732;2023-08-01T04:10:07;99501.11;;;16.51;38.28
69219;BME280;56232;53.384;-2.732;2023-08-01T04:12:33;99507.19;;;16.02;38.81
69219;BME280;56232;53.384;-2.732;2023-08-01T04:14:58;99507.81;;;16.60;37.64
69219;BME280;56232;53.384;-2.732;2023-08-01T04:17:24;99507.07;;;16.00;38.07
69219;BME280;56232;53.384;-2.732;2023-08-01T04:19:49;99504.65;;;16.44;38.13
69219;BME280;56232;53.384;-2.732;2023-08-01T04:22:15;99505.09;;;16.99;37.42
69219;BME280;56232;53.384;-2.732;2023-08-01T04:24:40;99505.63;;;16.56;37.91
69219;BME280;56232;53.384;-2.732;2023-08-01T04:27:06;99515.17;;;16.62;38.36
69219;BME280;56232;53.384;-2.732;2023-08-01T04:29:31;99517.06;;;16.36;37.66
69219;BME280;56232;53.384;-2.732;2023-08-01T04:31:57;99517.81;;;16.34;37.96
69219;BME280;56232;53.384;-2.732;2023-08-01T04:34:23;99521.58;;;16.29;37.70
69219;BME280;56232;53.384;-2.732;2023-08-01T04:36:48;99522.64;;;16.64;38.65
69219;BME280;56232;53.384;-2.732;2023-08-01T04:39:14;99522.70;;;16.24;38.82
69219;BME280;56232;53.384;-2.732;2023-08-01T04:41:39;99523.18;;;16.39;38.11
69219;BME280;56232;53.384;-2.732;2023-08-01T04:44:04;99519.17;;;15.91;38.02
69219;BME280;56232;53.384;-2.732;2023-08-01T04:46:31;99522.64;;;16.40;37.98
69219;BME280;56232;53.384;-2.732;2023-08-01T04:48:55;99526.00;;;16.22;37.63
69219;BME280;56232;53.384;-2.732;2023-08-01T04:51:21;99529.04;;;16.18;37.46
69219;BME280;56232;53.384;-2.732;2023-08-01T04:53:47;99528.41;;;15.61;38.15
69219;BME280;56232;53.384;-2.732;2023-08-01T04:56:12;99535.06;;;16.14;38.29
69219;BME280;56232;53.384;-2.732;2023-08-01T04:58:38;99537.11;;;16.17;38.25
69219;BME280;56232;53.384;-2.732;2023-08-01T05:01:04;99536.57;;;15.74;37.35
69219;BME280;56232;53.384;-2.732;2023-08-01T05:03:30;99535.20;;;15.80;38.30
69219;BME280;56232;53.384;-2.732;2023-08-01T05:05:54;99527.37;;;16.43;38.49
69219;BME280;56232;53.384;-2.732;2023-08-01T05:08:20;99531.11;;;15.92;37.63
69219;BME280;56232;53.384;-2.732;2023-08-01T05:10:46;99537.79;;;16.29;37.80
69219;BME280;56232;53.384;-2.732;2023-08-01T05:13:11;99536.18;;;16.33;37.61
69219;BME280;56232;53.384;-2.732;2023-08-01T05:15:37;99538.65;;;16.42;38.55
69219;BME280;56232;53.384;-2.732;2023-08-01T05:18:03;99542.33;;;16.52;38.05
69219;BME280;56232;53.384;-2.732;2023-08-01T05:20:29;99540.49;;;16.50;37.59
69219;BME280;56232;53.384;-2.732;2023-08-01T05:22:54;99544.24;;;16.54;38.07
69219;BME280;56232;53.384;-2.732;2023-08-01T05:25:19;99546.51;;;16.68;37.19
69219;BME280;56232;53.384;-2.732;2023-08-01T05:27:45;99544.21;;;16.75;37.87
69219;BME280;56232;53.384;-2.732;2023-08-01T05:30:11;99547.32;;;16.62;37.34
69219;BME280;56232;53.384;-2.732;2023-08-01T05:32:36;99549.68;;;16.60;37.83
69219;BME280;56232;53.384;-2.732;2023-08-01T05:35:01;99550.16;;;16.16;38.27
69219;BME280;56232;53.384;-2.732;2023-08-01T05:37:27;99550.92;;;15.67;38.29
69219;BME280;56232;53.384;-2.732;2023-08-01T05:39:53;99553.02;;;17.00;38.01
69219;BME280;56232;53.384;-2.732;2023-08-01T05:42:18;99553.62;;;16.63;37.64
69219;BME280;56232;53.384;-2.732;2023-08-01T05:44:44;99546.85;;;16.71;37.41
69219;BME280;56232;53.384;-2.732;2023-08-01T05:47:09;99552.04;;;17.29;37.30
69219;BME280;56232;53.384;-2.732;2023-08-01T05:49:35;99552.32;;;16.88;37.47
69219;BME280;56232;53.384;-2.732;2023-08-01T05:52:00;99554.84;;;16.29;37.00
69219;BME280;56232;53.384;-2.732;2023-08-01T05:54:26;99562.56;;;16.35;37.17
69219;BME280;56232;53.384;-2.732;2023-08-01T05:56:51;99565.87;;;16.45;37.00
69219;BME280;56232;53.384;-2.732;2023-08-01T05:59:17;99567.88;;;17.13;37.98
69219;BME280;56232;53.384;-2.732;2023-08-01T06:01:42;99569.44;;;17.42;37.41
69219;BME280;56232;53.384;-2.732;2023-08-01T06:04:08;99566.62;;;16.99;37.92
69219;BME280;56232;53.384;-2.732;2023-08-01T06:06:33;99567.90;;;17.17;37.75
69219;BME280;56232;53.384;-2.732;2023-08-01T06:08:59;99570.39;;;17.27;38.30
69219;BME280;56232;53.384;-2.732;2023-08-01T06:11:24;99573.46;;;17.41;37.47
69219;BME280;56232;53.384;-2.732;2023-08-01T06:13:50;99580.38;;;17.47;36.88
69219;BME280;56232;53.384;-2.732;2023-08-01T06:16:15;99575.05;;;17.41;36.71
69219;BME280;56232;53.384;-2.732;2023-08-01T06:18:40;99581.57;;;17.19;36.32
69219;BME280;56232;53.384;-2.732;2023-08-01T06:21:20;99583.22;;;16.79;37.34
69219;BME280;56232;53.384;-2.732;2023-08-01T06:23:31;99584.37;;;17.54;37.31
69219;BME280;56232;53.384;-2.732;2023-08-01T06:25:57;99580.99;;;17.69;36.88
69219;BME280;56232;53.384;-2.732;2023-08-01T06:28:23;99580.76;;;17.67;36.29
69219;BME280;56232;53.384;-2.732;2023-08-01T06:30:48;99583.98;;;17.56;36.24
69219;BME280;56232;53.384;-2.732;2023-08-01T06:33:13;99588.83;;;17.49;36.63
69219;BME280;56232;53.384;-2.732;2023-08-01T06:35:39;99588.14;;;17.55;36.39
69219;BME280;56232;53.384;-2.732;2023-08-01T06:38:05;99588.69;;;17.64;36.71
69219;BME280;56232;53.384;-2.732;2023-08-01T06:40:31;99592.56;;;17.24;36.63
69219;BME280;56232;53.384;-2.732;2023-08-01T06:42:56;99590.66;;;17.90;35.80
69219;BME280;56232;53.384;-2.732;2023-08-01T06:45:21;99592.36;;;17.65;36.24
69219;BME280;56232;53.384;-2.732;2023-08-01T06:47:47;99593.90;;;17.51;36.32
69219;BME280;56232;53.384;-2.732;2023-08-01T06:50:12;99590.53;;;17.36;36.32
69219;BME280;56232;53.384;-2.732;2023-08-01T06:52:38;99594.23;;;17.22;36.65
69219;BME280;56232;53.384;-2.732;2023-08-01T06:55:04;99595.91;;;17.44;36.48
69219;BME280;56232;53.384;-2.732;2023-08-01T06:57:31;99598.23;;;17.66;36.67
69219;BME280;56232;53.384;-2.732;2023-08-01T06:59:55;99604.56;;;18.01;36.37
69219;BME280;56232;53.384;-2.732;2023-08-01T07:02:20;99601.39;;;19.35;34.98
69219;BME280;56232;53.384;-2.732;2023-08-01T07:04:46;99604.48;;;20.00;34.60
69219;BME280;56232;53.384;-2.732;2023-08-01T07:07:12;99604.58;;;22.49;32.69
69219;BME280;56232;53.384;-2.732;2023-08-01T07:09:37;99598.55;;;21.88;32.93
69219;BME280;56232;53.384;-2.732;2023-08-01T07:12:03;99601.13;;;21.94;31.75
69219;BME280;56232;53.384;-2.732;2023-08-01T07:14:29;99608.72;;;21.28;32.84
69219;BME280;56232;53.384;-2.732;2023-08-01T07:16:54;99606.08;;;20.88;33.21
69219;BME280;56232;53.384;-2.732;2023-08-01T07:19:19;99608.61;;;19.55;33.45
69219;BME280;56232;53.384;-2.732;2023-08-01T07:21:45;99613.07;;;19.80;34.01
69219;BME280;56232;53.384;-2.732;2023-08-01T07:24:10;99612.21;;;19.62;33.91
69219;BME280;56232;53.384;-2.732;2023-08-01T07:26:36;99618.34;;;19.51;33.62
69219;BME280;56232;53.384;-2.732;2023-08-01T07:29:01;99617.45;;;19.91;33.35
69219;BME280;56232;53.384;-2.732;2023-08-01T07:31:27;99610.89;;;19.86;34.24
69219;BME280;56232;53.384;-2.732;2023-08-01T07:33:53;99607.37;;;19.71;34.05
69219;BME280;56232;53.384;-2.732;2023-08-01T07:36:18;99610.39;;;19.29;34.71
69219;BME280;56232;53.384;-2.732;2023-08-01T07:38:44;99611.06;;;18.54;34.32
69219;BME280;56232;53.384;-2.732;2023-08-01T07:41:09;99607.43;;;19.47;34.87
69219;BME280;56232;53.384;-2.732;2023-08-01T07:43:35;99608.55;;;19.63;34.21
69219;BME280;56232;53.384;-2.732;2023-08-01T07:46:00;99612.52;;;19.85;34.23
69219;BME280;56232;53.384;-2.732;2023-08-01T07:48:26;99620.47;;;19.61;33.64
69219;BME280;56232;53.384;-2.732;2023-08-01T07:50:52;99624.95;;;19.56;33.67
69219;BME280;56232;53.384;-2.732;2023-08-01T07:53:18;99625.14;;;19.71;33.53
69219;BME280;56232;53.384;-2.732;2023-08-01T07:55:43;99628.88;;;20.29;33.34
69219;BME280;56232;53.384;-2.732;2023-08-01T07:58:08;99628.03;;;20.22;32.77
69219;BME280;56232;53.384;-2.732;2023-08-01T08:00:34;99631.21;;;20.90;32.35
69219;BME280;56232;53.384;-2.732;2023-08-01T08:02:59;99632.14;;;20.86;32.18
69219;BME280;56232;53.384;-2.732;2023-08-01T08:05:24;99626.93;;;21.66;31.76
69219;BME280;56232;53.384;-2.732;2023-08-01T08:07:50;99626.90;;;22.11;31.13
69219;BME280;56232;53.384;-2.732;2023-08-01T08:10:15;99629.33;;;21.54;31.60
69219;BME280;56232;53.384;-2.732;2023-08-01T08:12:41;99635.62;;;21.93;31.39
69219;BME280;56232;53.384;-2.732;2023-08-01T08:15:07;99638.39;;;22.54;30.28
69219;BME280;56232;53.384;-2.732;2023-08-01T08:17:32;99635.87;;;23.47;29.72
69219;BME280;56232;53.384;-2.732;2023-08-01T08:19:58;99633.77;;;23.13;29.89
69219;BME280;56232;53.384;-2.732;2023-08-01T08:22:23;99636.93;;;23.44;29.72
69219;BME280;56232;53.384;-2.732;2023-08-01T08:24:50;99631.67;;;24.95;28.93
69219;BME280;56232;53.384;-2.732;2023-08-01T08:27:14;99632.11;;;24.44;29.04
69219;BME280;56232;53.384;-2.732;2023-08-01T08:29:40;99634.01;;;24.18;28.67
69219;BME280;56232;53.384;-2.732;2023-08-01T08:32:07;99634.09;;;24.21;29.41
69219;BME280;56232;53.384;-2.732;2023-08-01T08:34:32;99629.74;;;24.99;28.93
69219;BME280;56232;53.384;-2.732;2023-08-01T08:36:56;99636.10;;;23.79;29.03
69219;BME280;56232;53.384;-2.732;2023-08-01T08:39:22;99646.06;;;25.11;28.62
69219;BME280;56232;53.384;-2.732;2023-08-01T08:41:49;99639.07;;;26.71;26.81
69219;BME280;56232;53.384;-2.732;2023-08-01T08:44:15;99646.26;;;25.73;27.11
69219;BME280;56232;53.384;-2.732;2023-08-01T08:46:41;99652.83;;;25.06;27.74
69219;BME280;56232;53.384;-2.732;2023-08-01T08:49:04;99644.70;;;24.70;27.97
69219;BME280;56232;53.384;-2.732;2023-08-01T08:51:36;99642.86;;;24.97;27.88
69219;BME280;56232;53.384;-2.732;2023-08-01T08:53:56;99637.18;;;25.41;28.04
69219;BME280;56232;53.384;-2.732;2023-08-01T08:56:21;99636.68;;;25.55;28.45
69219;BME280;56232;53.384;-2.732;2023-08-01T08:58:47;99641.63;;;24.72;28.36
69219;BME280;56232;53.384;-2.732;2023-08-01T09:01:12;99645.65;;;24.20;28.65
69219;BME280;56232;53.384;-2.732;2023-08-01T09:03:37;99650.80;;;23.90;28.81
69219;BME280;56232;53.384;-2.732;2023-08-01T09:06:07;99657.14;;;23.98;28.58
69219;BME280;56232;53.384;-2.732;2023-08-01T09:08:31;99649.60;;;25.18;28.99
69219;BME280;56232;53.384;-2.732;2023-08-01T09:10:53;99647.17;;;24.03;28.78
69219;BME280;56232;53.384;-2.732;2023-08-01T09:13:19;99647.35;;;24.37;29.06
69219;BME280;56232;53.384;-2.732;2023-08-01T09:15:45;99644.64;;;24.10;29.67
69219;BME280;56232;53.384;-2.732;2023-08-01T09:18:10;99645.19;;;23.10;29.75
69219;BME280;56232;53.384;-2.732;2023-08-01T09:20:41;99643.52;;;23.49;30.10
69219;BME280;56232;53.384;-2.732;2023-08-01T09:23:01;99652.89;;;23.00;30.54
69219;BME280;56232;53.384;-2.732;2023-08-01T09:25:31;99658.93;;;23.00;30.76
69219;BME280;56232;53.384;-2.732;2023-08-01T09:27:52;99655.82;;;21.86;31.07
69219;BME280;56232;53.384;-2.732;2023-08-01T09:30:17;99660.45;;;21.99;31.22
69219;BME280;56232;53.384;-2.732;2023-08-01T09:32:51;99661.87;;;22.22;31.06
69219;BME280;56232;53.384;-2.732;2023-08-01T09:35:09;99653.21;;;23.20;30.84
69219;BME280;56232;53.384;-2.732;2023-08-01T09:37:39;99648.82;;;22.80;30.81
69219;BME280;56232;53.384;-2.732;2023-08-01T09:40:00;99651.32;;;23.44;30.73
69219;BME280;56232;53.384;-2.732;2023-08-01T09:42:25;99656.47;;;22.73;30.52
69219;BME280;56232;53.384;-2.732;2023-08-01T09:44:51;99656.86;;;23.58;29.98
69219;BME280;56232;53.384;-2.732;2023-08-01T09:47:16;99656.05;;;24.70;29.62
69219;BME280;56232;53.384;-2.732;2023-08-01T09:49:47;99662.90;;;24.75;28.57
69219;BME280;56232;53.384;-2.732;2023-08-01T09:52:07;99669.35;;;26.31;28.32
69219;BME280;56232;53.384;-2.732;2023-08-01T09:54:33;99673.95;;;25.77;28.17
69219;BME280;56232;53.384;-2.732;2023-08-01T09:57:00;99670.82;;;24.77;28.59
69219;BME280;56232;53.384;-2.732;2023-08-01T09:59:25;99670.97;;;25.08;28.68
69219;BME280;56232;53.384;-2.732;2023-08-01T10:01:51;99674.49;;;24.22;28.83
69219;BME280;56232;53.384;-2.732;2023-08-01T10:04:15;99674.76;;;24.26;28.60
69219;BME280;56232;53.384;-2.732;2023-08-01T10:06:43;99673.75;;;23.93;29.19
69219;BME280;56232;53.384;-2.732;2023-08-01T10:09:06;99679.50;;;23.70;29.92
69219;BME280;56232;53.384;-2.732;2023-08-01T10:11:34;99676.70;;;24.14;29.69
69219;BME280;56232;53.384;-2.732;2023-08-01T10:13:57;99688.79;;;23.48;29.78
69219;BME280;56232;53.384;-2.732;2023-08-01T10:16:24;99694.31;;;23.05;30.75
69219;BME280;56232;53.384;-2.732;2023-08-01T10:18:49;99689.92;;;22.17;31.00
69219;BME280;56232;53.384;-2.732;2023-08-01T10:21:16;99696.60;;;22.49;31.26
69219;BME280;56232;53.384;-2.732;2023-08-01T10:23:39;99694.55;;;22.57;31.07
69219;BME280;56232;53.384;-2.732;2023-08-01T10:26:07;99698.12;;;22.67;31.08
69219;BME280;56232;53.384;-2.732;2023-08-01T10:28:33;99695.89;;;22.31;31.25
69219;BME280;56232;53.384;-2.732;2023-08-01T10:33:21;99697.66;;;23.30;31.12
69219;BME280;56232;53.384;-2.732;2023-08-01T10:35:47;99705.94;;;21.85;31.64
69219;BME280;56232;53.384;-2.732;2023-08-01T10:38:13;99711.25;;;21.72;31.57
69219;BME280;56232;53.384;-2.732;2023-08-01T10:40:39;99709.68;;;22.47;31.98
69219;BME280;56232;53.384;-2.732;2023-08-01T10:43:04;99710.32;;;22.33;32.13
69219;BME280;56232;53.384;-2.732;2023-08-01T10:45:30;99709.27;;;22.14;32.15
69219;BME280;56232;53.384;-2.732;2023-08-01T10:50:20;99708.07;;;23.72;30.87
69219;BME280;56232;53.384;-2.732;2023-08-01T10:52:46;99697.47;;;23.86;29.68
69219;BME280;56232;53.384;-2.732;2023-08-01T10:55:11;99687.03;;;25.39;29.21
69219;BME280;56232;53.384;-2.732;2023-08-01T10:57:39;99682.71;;;25.13;28.39
69219;BME280;56232;53.384;-2.732;2023-08-01T11:00:03;99683.22;;;25.65;28.06
69219;BME280;56232;53.384;-2.732;2023-08-01T11:02:29;99680.06;;;25.00;29.06
69219;BME280;56232;53.384;-2.732;2023-08-01T11:04:58;99683.21;;;24.53;29.39
69219;BME280;56232;53.384;-2.732;2023-08-01T11:07:18;99679.08;;;24.04;29.37
69219;BME280;56232;53.384;-2.732;2023-08-01T11:09:44;99682.88;;;24.86;30.02
69219;BME280;56232;53.384;-2.732;2023-08-01T11:12:10;99675.53;;;23.75;30.10
69219;BME280;56232;53.384;-2.732;2023-08-01T11:14:35;99679.76;;;24.48;29.65
69219;BME280;56232;53.384;-2.732;2023-08-01T11:17:01;99683.13;;;24.49;30.17
69219;BME280;56232;53.384;-2.732;2023-08-01T11:19:27;99686.13;;;24.19;30.36
69219;BME280;56232;53.384;-2.732;2023-08-01T11:21:52;99690.05;;;23.79;30.32
69219;BME280;56232;53.384;-2.732;2023-08-01T11:24:18;99694.52;;;23.49;30.52
69219;BME280;56232;53.384;-2.732;2023-08-01T11:26:43;99697.27;;;23.53;31.29
69219;BME280;56232;53.384;-2.732;2023-08-01T11:29:09;99699.86;;;23.81;30.38
69219;BME280;56232;53.384;-2.732;2023-08-01T11:31:33;99702.04;;;24.61;30.35
69219;BME280;56232;53.384;-2.732;2023-08-01T11:33:59;99695.56;;;24.85;30.29
69219;BME280;56232;53.384;-2.732;2023-08-01T11:36:26;99697.83;;;24.76;29.68
69219;BME280;56232;53.384;-2.732;2023-08-01T11:38:50;99696.68;;;25.26;29.56
69219;BME280;56232;53.384;-2.732;2023-08-01T11:41:16;99702.25;;;25.14;29.73
69219;BME280;56232;53.384;-2.732;2023-08-01T11:43:42;99703.11;;;25.73;29.51
69219;BME280;56232;53.384;-2.732;2023-08-01T11:46:07;99705.87;;;24.98;29.77
69219;BME280;56232;53.384;-2.732;2023-08-01T11:48:33;99703.58;;;25.14;30.03
69219;BME280;56232;53.384;-2.732;2023-08-01T11:50:58;99699.69;;;25.85;30.00
69219;BME280;56232;53.384;-2.732;2023-08-01T11:53:23;99702.86;;;25.21;29.75
69219;BME280;56232;53.384;-2.732;2023-08-01T11:55:50;99703.78;;;24.47;30.57
69219;BME280;56232;53.384;-2.732;2023-08-01T11:58:15;99705.80;;;24.72;29.99
69219;BME280;56232;53.384;-2.732;2023-08-01T12:00:40;99700.52;;;25.21;30.27
69219;BME280;56232;53.384;-2.732;2023-08-01T12:03:06;99703.92;;;24.28;30.00
69219;BME280;56232;53.384;-2.732;2023-08-01T12:05:32;99708.26;;;24.77;30.53
69219;BME280;56232;53.384;-2.732;2023-08-01T12:10:22;99697.91;;;25.32;29.90
69219;BME280;56232;53.384;-2.732;2023-08-01T12:12:48;99701.37;;;25.83;30.55
69219;BME280;56232;53.384;-2.732;2023-08-01T12:15:14;99696.80;;;25.58;29.71
69219;BME280;56232;53.384;-2.732;2023-08-01T12:17:39;99696.35;;;25.56;30.05
69219;BME280;56232;53.384;-2.732;2023-08-01T12:20:06;99696.38;;;25.90;29.25
69219;BME280;56232;53.384;-2.732;2023-08-01T12:22:31;99704.49;;;24.80;29.46
69219;BME280;56232;53.384;-2.732;2023-08-01T12:24:55;99701.00;;;26.46;29.18
69219;BME280;56232;53.384;-2.732;2023-08-01T12:27:20;99700.40;;;26.38;29.93
69219;BME280;56232;53.384;-2.732;2023-08-01T12:29:46;99701.68;;;25.39;30.19
69219;BME280;56232;53.384;-2.732;2023-08-01T12:32:12;99707.38;;;25.85;30.23
69219;BME280;56232;53.384;-2.732;2023-08-01T12:34:37;99707.24;;;25.08;29.80
69219;BME280;56232;53.384;-2.732;2023-08-01T12:37:03;99706.86;;;24.84;30.78
69219;BME280;56232;53.384;-2.732;2023-08-01T12:39:28;99704.46;;;24.40;30.45
69219;BME280;56232;53.384;-2.732;2023-08-01T12:41:53;99702.98;;;23.48;31.17
69219;BME280;56232;53.384;-2.732;2023-08-01T12:44:20;99710.99;;;24.91;30.75
69219;BME280;56232;53.384;-2.732;2023-08-01T12:46:44;99709.53;;;24.56;30.48